sensor_id;sensor_type;location;lat;lon;timestamp;temperature;humidity
2042;DHT22;1026;51.460;7.252;2023-04-24T00:00:41;13.90;90.80
2042;DHT22;1026;51.460;7.252;2023-04-24T00:03:07;13.90;90.80
2042;DHT22;1026;51.460;7.252;2023-04-24T00:05:33;13.90;90.80
2042;DHT22;1026;51.460;7.252;2023-04-24T00:07:59;13.90;90.70
2042;DHT22;1026;51.460;7.252;2023-04-24T00:10:25;13.90;90.70
2042;DHT22;1026;51.460;7.252;2023-04-24T00:12:51;13.90;90.80
2042;DHT22;1026;51.460;7.252;2023-04-24T00:15:16;13.90;91.10
2042;DHT22;1026;51.460;7.252;2023-04-24T00:17:42;13.90;90.80
2042;DHT22;1026;51.460;7.252;2023-04-24T00:20:08;13.80;90.80
2042;DHT22;1026;51.460;7.252;2023-04-24T00:22:35;13.80;90.80
2042;DHT22;1026;51.460;7.252;2023-04-24T00:25:01;13.80;90.90
2042;DHT22;1026;51.460;7.252;2023-04-24T00:27:26;13.80;90.80
2042;DHT22;1026;51.460;7.252;2023-04-24T00:29:52;13.80;90.90
2042;DHT22;1026;51.460;7.252;2023-04-24T00:32:18;13.80;90.80
2042;DHT22;1026;51.460;7.252;2023-04-24T00:34:44;13.80;90.90
2042;DHT22;1026;51.460;7.252;2023-04-24T00:37:10;13.70;90.80
2042;DHT22;1026;51.460;7.252;2023-04-24T00:39:37;13.70;90.80
2042;DHT22;1026;51.460;7.252;2023-04-24T00:42:02;13.70;90.80
2042;DHT22;1026;51.460;7.252;2023-04-24T00:44:32;13.70;90.50
2042;DHT22;1026;51.460;7.252;2023-04-24T00:46:59;13.70;90.90
2042;DHT22;1026;51.460;7.252;2023-04-24T00:49:25;13.70;90.90
2042;DHT22;1026;51.460;7.252;2023-04-24T00:51:51;13.60;90.90
2042;DHT22;1026;51.460;7.252;2023-04-24T00:54:17;13.60;90.90
2042;DHT22;1026;51.460;7.252;2023-04-24T00:57:04;13.60;90.90
2042;DHT22;1026;51.460;7.252;2023-04-24T00:59:30;13.60;91.00
2042;DHT22;1026;51.460;7.252;2023-04-24T01:01:56;13.60;91.00
2042;DHT22;1026;51.460;7.252;2023-04-24T01:04:22;13.60;91.00
2042;DHT22;1026;51.460;7.252;2023-04-24T01:06:48;13.50;90.90
2042;DHT22;1026;51.460;7.252;2023-04-24T01:09:15;13.60;91.00
2042;DHT22;1026;51.460;7.252;2023-04-24T01:11:42;13.50;90.90
2042;DHT22;1026;51.460;7.252;2023-04-24T01:14:08;13.50;90.80
2042;DHT22;1026;51.460;7.252;2023-04-24T01:16:34;13.50;90.90
2042;DHT22;1026;51.460;7.252;2023-04-24T01:19:01;13.50;90.90
2042;DHT22;1026;51.460;7.252;2023-04-24T01:21:30;13.50;90.90
2042;DHT22;1026;51.460;7.252;2023-04-24T01:23:58;13.50;90.90
2042;DHT22;1026;51.460;7.252;2023-04-24T01:26:24;13.50;90.90
2042;DHT22;1026;51.460;7.252;2023-04-24T01:28:51;13.40;90.90
2042;DHT22;1026;51.460;7.252;2023-04-24T01:31:17;13.40;90.90
2042;DHT22;1026;51.460;7.252;2023-04-24T01:33:43;13.40;90.80
2042;DHT22;1026;51.460;7.252;2023-04-24T01:36:10;13.40;90.90
2042;DHT22;1026;51.460;7.252;2023-04-24T01:38:37;13.30;90.60
2042;DHT22;1026;51.460;7.252;2023-04-24T01:41:02;13.30;90.90
2042;DHT22;1026;51.460;7.252;2023-04-24T01:43:29;13.40;91.30
2042;DHT22;1026;51.460;7.252;2023-04-24T01:45:54;13.30;91.00
2042;DHT22;1026;51.460;7.252;2023-04-24T01:48:20;13.30;91.00
2042;DHT22;1026;51.460;7.252;2023-04-24T01:50:46;13.30;90.90
2042;DHT22;1026;51.460;7.252;2023-04-24T01:53:12;13.30;91.00
2042;DHT22;1026;51.460;7.252;2023-04-24T01:55:38;13.30;91.00
2042;DHT22;1026;51.460;7.252;2023-04-24T01:58:03;13.30;90.80
2042;DHT22;1026;51.460;7.252;2023-04-24T02:00:29;13.20;90.80
2042;DHT22;1026;51.460;7.252;2023-04-24T02:02:55;13.20;90.80
2042;DHT22;1026;51.460;7.252;2023-04-24T02:05:20;13.20;90.90
2042;DHT22;1026;51.460;7.252;2023-04-24T02:07:46;13.20;90.90
2042;DHT22;1026;51.460;7.252;2023-04-24T02:10:12;13.20;91.00
2042;DHT22;1026;51.460;7.252;2023-04-24T02:12:37;13.20;90.90
2042;DHT22;1026;51.460;7.252;2023-04-24T02:15:04;13.20;90.90
2042;DHT22;1026;51.460;7.252;2023-04-24T02:17:31;13.10;90.80
2042;DHT22;1026;51.460;7.252;2023-04-24T02:19:56;13.10;90.90
2042;DHT22;1026;51.460;7.252;2023-04-24T02:22:22;13.20;90.90
2042;DHT22;1026;51.460;7.252;2023-04-24T02:24:48;13.10;90.80
2042;DHT22;1026;51.460;7.252;2023-04-24T02:27:13;13.10;90.90
2042;DHT22;1026;51.460;7.252;2023-04-24T02:29:40;13.10;91.00
2042;DHT22;1026;51.460;7.252;2023-04-24T02:32:05;13.00;90.80
2042;DHT22;1026;51.460;7.252;2023-04-24T02:34:31;13.00;90.90
2042;DHT22;1026;51.460;7.252;2023-04-24T02:36:57;13.00;90.90
2042;DHT22;1026;51.460;7.252;2023-04-24T02:39:22;13.00;91.00
2042;DHT22;1026;51.460;7.252;2023-04-24T02:41:48;13.00;91.00
2042;DHT22;1026;51.460;7.252;2023-04-24T02:44:19;13.00;90.90
2042;DHT22;1026;51.460;7.252;2023-04-24T02:46:51;13.00;90.90
2042;DHT22;1026;51.460;7.252;2023-04-24T02:49:16;12.90;90.90
2042;DHT22;1026;51.460;7.252;2023-04-24T02:51:42;12.90;91.00
2042;DHT22;1026;51.460;7.252;2023-04-24T02:54:08;12.90;91.00
2042;DHT22;1026;51.460;7.252;2023-04-24T02:56:35;12.90;91.00
2042;DHT22;1026;51.460;7.252;2023-04-24T02:59:01;12.90;90.90
2042;DHT22;1026;51.460;7.252;2023-04-24T03:01:26;12.90;91.00
2042;DHT22;1026;51.460;7.252;2023-04-24T03:03:52;12.90;91.00
2042;DHT22;1026;51.460;7.252;2023-04-24T03:06:18;12.80;90.90
2042;DHT22;1026;51.460;7.252;2023-04-24T03:08:43;12.80;90.90
2042;DHT22;1026;51.460;7.252;2023-04-24T03:11:09;12.80;90.90
2042;DHT22;1026;51.460;7.252;2023-04-24T03:13:35;12.80;90.90
2042;DHT22;1026;51.460;7.252;2023-04-24T03:16:01;12.80;90.90
2042;DHT22;1026;51.460;7.252;2023-04-24T03:18:26;12.80;90.90
2042;DHT22;1026;51.460;7.252;2023-04-24T03:20:52;12.80;91.00
2042;DHT22;1026;51.460;7.252;2023-04-24T03:23:18;12.80;91.00
2042;DHT22;1026;51.460;7.252;2023-04-24T03:25:43;12.70;91.00
2042;DHT22;1026;51.460;7.252;2023-04-24T03:28:09;12.70;90.90
2042;DHT22;1026;51.460;7.252;2023-04-24T03:30:35;12.70;91.00
2042;DHT22;1026;51.460;7.252;2023-04-24T03:33:00;12.70;90.90
2042;DHT22;1026;51.460;7.252;2023-04-24T03:35:26;12.70;91.00
2042;DHT22;1026;51.460;7.252;2023-04-24T03:37:52;12.70;91.00
2042;DHT22;1026;51.460;7.252;2023-04-24T03:40:17;12.70;91.00
2042;DHT22;1026;51.460;7.252;2023-04-24T03:42:43;12.70;91.00
2042;DHT22;1026;51.460;7.252;2023-04-24T03:45:09;12.60;91.00
2042;DHT22;1026;51.460;7.252;2023-04-24T03:47:35;12.60;91.00
2042;DHT22;1026;51.460;7.252;2023-04-24T03:50:01;12.60;91.00
2042;DHT22;1026;51.460;7.252;2023-04-24T03:52:27;12.60;91.10
2042;DHT22;1026;51.460;7.252;2023-04-24T03:54:53;12.60;91.00
2042;DHT22;1026;51.460;7.252;2023-04-24T03:57:18;12.60;91.00
2042;DHT22;1026;51.460;7.252;2023-04-24T03:59:44;12.60;91.00
2042;DHT22;1026;51.460;7.252;2023-04-24T04:02:10;12.60;91.00
2042;DHT22;1026;51.460;7.252;2023-04-24T04:04:35;12.60;91.10
2042;DHT22;1026;51.460;7.252;2023-04-24T04:07:01;12.50;91.10
2042;DHT22;1026;51.460;7.252;2023-04-24T04:09:28;12.50;91.10
2042;DHT22;1026;51.460;7.252;2023-04-24T04:11:54;12.50;91.00
2042;DHT22;1026;51.460;7.252;2023-04-24T04:14:21;12.50;91.10
2042;DHT22;1026;51.460;7.252;2023-04-24T04:16:46;12.50;91.10
2042;DHT22;1026;51.460;7.252;2023-04-24T04:19:12;12.50;91.10
2042;DHT22;1026;51.460;7.252;2023-04-24T04:21:38;12.50;91.10
2042;DHT22;1026;51.460;7.252;2023-04-24T04:24:03;12.50;91.10
2042;DHT22;1026;51.460;7.252;2023-04-24T04:26:30;12.50;91.10
2042;DHT22;1026;51.460;7.252;2023-04-24T04:28:58;12.50;91.10
2042;DHT22;1026;51.460;7.252;2023-04-24T04:31:24;12.50;91.10
2042;DHT22;1026;51.460;7.252;2023-04-24T04:33:56;12.50;91.10
2042;DHT22;1026;51.460;7.252;2023-04-24T04:36:21;12.50;91.00
2042;DHT22;1026;51.460;7.252;2023-04-24T04:38:49;12.50;91.10
2042;DHT22;1026;51.460;7.252;2023-04-24T04:41:15;12.50;91.10
2042;DHT22;1026;51.460;7.252;2023-04-24T04:43:42;12.50;91.10
2042;DHT22;1026;51.460;7.252;2023-04-24T04:46:08;12.40;91.00
2042;DHT22;1026;51.460;7.252;2023-04-24T04:48:36;12.40;91.10
2042;DHT22;1026;51.460;7.252;2023-04-24T04:51:01;12.40;91.00
2042;DHT22;1026;51.460;7.252;2023-04-24T04:53:27;12.40;91.10
2042;DHT22;1026;51.460;7.252;2023-04-24T04:55:53;12.40;91.10
2042;DHT22;1026;51.460;7.252;2023-04-24T04:58:18;12.30;91.00
2042;DHT22;1026;51.460;7.252;2023-04-24T05:01:02;12.40;91.20
2042;DHT22;1026;51.460;7.252;2023-04-24T05:03:33;12.30;91.10
2042;DHT22;1026;51.460;7.252;2023-04-24T05:05:58;12.30;91.10
2042;DHT22;1026;51.460;7.252;2023-04-24T05:08:24;12.30;91.10
2042;DHT22;1026;51.460;7.252;2023-04-24T05:10:50;12.30;91.10
2042;DHT22;1026;51.460;7.252;2023-04-24T05:13:15;12.30;91.10
2042;DHT22;1026;51.460;7.252;2023-04-24T05:15:41;12.30;91.10
2042;DHT22;1026;51.460;7.252;2023-04-24T05:18:07;12.30;91.10
2042;DHT22;1026;51.460;7.252;2023-04-24T05:20:32;12.30;91.10
2042;DHT22;1026;51.460;7.252;2023-04-24T05:22:58;12.30;91.10
2042;DHT22;1026;51.460;7.252;2023-04-24T05:25:24;12.30;91.10
2042;DHT22;1026;51.460;7.252;2023-04-24T05:27:49;12.30;91.10
2042;DHT22;1026;51.460;7.252;2023-04-24T05:30:15;12.20;91.00
2042;DHT22;1026;51.460;7.252;2023-04-24T05:32:41;12.30;91.20
2042;DHT22;1026;51.460;7.252;2023-04-24T05:35:06;12.30;91.10
2042;DHT22;1026;51.460;7.252;2023-04-24T05:37:33;12.30;91.10
2042;DHT22;1026;51.460;7.252;2023-04-24T05:39:58;12.30;91.10
2042;DHT22;1026;51.460;7.252;2023-04-24T05:42:24;12.30;91.10
2042;DHT22;1026;51.460;7.252;2023-04-24T05:44:50;12.30;91.20
2042;DHT22;1026;51.460;7.252;2023-04-24T05:47:16;12.20;91.10
2042;DHT22;1026;51.460;7.252;2023-04-24T05:49:41;12.20;91.10
2042;DHT22;1026;51.460;7.252;2023-04-24T05:52:07;12.30;91.20
2042;DHT22;1026;51.460;7.252;2023-04-24T05:54:34;12.20;91.10
2042;DHT22;1026;51.460;7.252;2023-04-24T05:57:00;12.20;91.20
2042;DHT22;1026;51.460;7.252;2023-04-24T05:59:29;12.20;91.20
2042;DHT22;1026;51.460;7.252;2023-04-24T06:01:56;12.20;91.20
2042;DHT22;1026;51.460;7.252;2023-04-24T06:04:21;12.20;91.20
2042;DHT22;1026;51.460;7.252;2023-04-24T06:06:47;12.20;91.20
2042;DHT22;1026;51.460;7.252;2023-04-24T06:09:22;12.20;91.20
2042;DHT22;1026;51.460;7.252;2023-04-24T06:11:49;12.20;91.30
2042;DHT22;1026;51.460;7.252;2023-04-24T06:14:18;12.20;91.20
2042;DHT22;1026;51.460;7.252;2023-04-24T06:16:43;12.20;91.20
2042;DHT22;1026;51.460;7.252;2023-04-24T06:19:09;12.10;91.20
2042;DHT22;1026;51.460;7.252;2023-04-24T06:21:35;12.10;91.20
2042;DHT22;1026;51.460;7.252;2023-04-24T06:24:00;12.20;91.30
2042;DHT22;1026;51.460;7.252;2023-04-24T06:26:27;12.20;91.30
2042;DHT22;1026;51.460;7.252;2023-04-24T06:28:53;12.20;91.30
2042;DHT22;1026;51.460;7.252;2023-04-24T06:31:20;12.20;91.30
2042;DHT22;1026;51.460;7.252;2023-04-24T06:33:47;12.10;91.30
2042;DHT22;1026;51.460;7.252;2023-04-24T06:36:13;12.10;91.30
2042;DHT22;1026;51.460;7.252;2023-04-24T06:38:38;12.10;91.30
2042;DHT22;1026;51.460;7.252;2023-04-24T06:41:04;12.10;91.30
2042;DHT22;1026;51.460;7.252;2023-04-24T06:43:31;12.10;91.30
2042;DHT22;1026;51.460;7.252;2023-04-24T06:45:57;12.10;91.30
2042;DHT22;1026;51.460;7.252;2023-04-24T06:48:24;12.10;91.30
2042;DHT22;1026;51.460;7.252;2023-04-24T06:50:50;12.10;91.30
2042;DHT22;1026;51.460;7.252;2023-04-24T06:53:16;12.00;90.90
2042;DHT22;1026;51.460;7.252;2023-04-24T06:55:42;12.00;91.00
2042;DHT22;1026;51.460;7.252;2023-04-24T06:58:09;12.00;91.00
2042;DHT22;1026;51.460;7.252;2023-04-24T07:00:34;12.00;91.10
2042;DHT22;1026;51.460;7.252;2023-04-24T07:03:00;12.00;91.10
2042;DHT22;1026;51.460;7.252;2023-04-24T07:05:26;12.00;91.10
2042;DHT22;1026;51.460;7.252;2023-04-24T07:07:51;12.10;91.10
2042;DHT22;1026;51.460;7.252;2023-04-24T07:10:17;12.10;91.20
2042;DHT22;1026;51.460;7.252;2023-04-24T07:12:43;12.10;91.20
2042;DHT22;1026;51.460;7.252;2023-04-24T07:15:09;12.10;91.20
2042;DHT22;1026;51.460;7.252;2023-04-24T07:17:36;12.10;91.20
2042;DHT22;1026;51.460;7.252;2023-04-24T07:20:04;12.10;91.20
2042;DHT22;1026;51.460;7.252;2023-04-24T07:22:30;12.10;91.30
2042;DHT22;1026;51.460;7.252;2023-04-24T07:24:55;12.10;91.30
2042;DHT22;1026;51.460;7.252;2023-04-24T07:27:21;12.10;91.20
2042;DHT22;1026;51.460;7.252;2023-04-24T07:29:47;12.10;91.20
2042;DHT22;1026;51.460;7.252;2023-04-24T07:32:12;12.10;91.30
2042;DHT22;1026;51.460;7.252;2023-04-24T07:34:38;12.10;91.30
2042;DHT22;1026;51.460;7.252;2023-04-24T07:37:04;12.10;91.30
2042;DHT22;1026;51.460;7.252;2023-04-24T07:39:30;12.00;91.30
2042;DHT22;1026;51.460;7.252;2023-04-24T07:41:55;12.00;91.30
2042;DHT22;1026;51.460;7.252;2023-04-24T07:44:21;12.10;91.30
2042;DHT22;1026;51.460;7.252;2023-04-24T07:46:47;12.10;91.30
2042;DHT22;1026;51.460;7.252;2023-04-24T07:49:12;12.10;91.30
2042;DHT22;1026;51.460;7.252;2023-04-24T07:51:38;12.10;91.30
2042;DHT22;1026;51.460;7.252;2023-04-24T07:54:05;12.10;91.30
2042;DHT22;1026;51.460;7.252;2023-04-24T07:56:32;12.10;91.60
2042;DHT22;1026;51.460;7.252;2023-04-24T07:58:58;12.10;91.40
2042;DHT22;1026;51.460;7.252;2023-04-24T08:01:24;12.10;91.40
2042;DHT22;1026;51.460;7.252;2023-04-24T08:03:57;12.10;91.40
2042;DHT22;1026;51.460;7.252;2023-04-24T08:06:23;12.10;91.40
2042;DHT22;1026;51.460;7.252;2023-04-24T08:08:49;12.00;91.40
2042;DHT22;1026;51.460;7.252;2023-04-24T08:11:22;12.10;91.30
2042;DHT22;1026;51.460;7.252;2023-04-24T08:13:54;12.10;91.40
2042;DHT22;1026;51.460;7.252;2023-04-24T08:16:20;12.10;91.30
2042;DHT22;1026;51.460;7.252;2023-04-24T08:18:46;12.10;91.20
2042;DHT22;1026;51.460;7.252;2023-04-24T08:21:11;12.10;91.40
2042;DHT22;1026;51.460;7.252;2023-04-24T08:23:42;12.00;91.30
2042;DHT22;1026;51.460;7.252;2023-04-24T08:26:08;12.10;91.30
2042;DHT22;1026;51.460;7.252;2023-04-24T08:28:39;12.10;91.30
2042;DHT22;1026;51.460;7.252;2023-04-24T08:31:04;12.10;91.30
2042;DHT22;1026;51.460;7.252;2023-04-24T08:33:30;12.10;91.40
2042;DHT22;1026;51.460;7.252;2023-04-24T08:36:01;12.10;91.30
2042;DHT22;1026;51.460;7.252;2023-04-24T08:38:27;12.10;91.20
2042;DHT22;1026;51.460;7.252;2023-04-24T08:40:53;12.10;91.20
2042;DHT22;1026;51.460;7.252;2023-04-24T08:43:21;12.10;91.20
2042;DHT22;1026;51.460;7.252;2023-04-24T08:45:47;12.10;91.20
2042;DHT22;1026;51.460;7.252;2023-04-24T08:48:13;12.10;91.20
2042;DHT22;1026;51.460;7.252;2023-04-24T08:50:40;12.10;91.30
2042;DHT22;1026;51.460;7.252;2023-04-24T08:53:18;12.00;91.20
2042;DHT22;1026;51.460;7.252;2023-04-24T08:55:47;12.10;91.30
2042;DHT22;1026;51.460;7.252;2023-04-24T08:58:16;12.10;91.30
2042;DHT22;1026;51.460;7.252;2023-04-24T09:01:06;12.10;91.30
2042;DHT22;1026;51.460;7.252;2023-04-24T09:04:12;12.10;91.30
2042;DHT22;1026;51.460;7.252;2023-04-24T09:06:39;12.10;91.30
2042;DHT22;1026;51.460;7.252;2023-04-24T09:09:11;12.10;91.30
2042;DHT22;1026;51.460;7.252;2023-04-24T09:11:37;12.10;91.30
2042;DHT22;1026;51.460;7.252;2023-04-24T09:14:04;12.10;91.30
2042;DHT22;1026;51.460;7.252;2023-04-24T09:16:29;12.10;91.30
2042;DHT22;1026;51.460;7.252;2023-04-24T09:18:58;12.00;91.30
2042;DHT22;1026;51.460;7.252;2023-04-24T09:21:24;12.10;91.30
2042;DHT22;1026;51.460;7.252;2023-04-24T09:24:00;12.10;91.40
2042;DHT22;1026;51.460;7.252;2023-04-24T09:26:29;12.10;91.40
2042;DHT22;1026;51.460;7.252;2023-04-24T09:28:57;12.00;91.40
2042;DHT22;1026;51.460;7.252;2023-04-24T09:31:23;12.00;91.40
2042;DHT22;1026;51.460;7.252;2023-04-24T09:33:55;12.00;91.40
2042;DHT22;1026;51.460;7.252;2023-04-24T09:36:30;12.00;91.40
2042;DHT22;1026;51.460;7.252;2023-04-24T09:38:59;12.00;91.40
2042;DHT22;1026;51.460;7.252;2023-04-24T09:41:26;12.00;91.40
2042;DHT22;1026;51.460;7.252;2023-04-24T09:43:54;12.00;91.40
2042;DHT22;1026;51.460;7.252;2023-04-24T09:46:20;12.00;91.40
2042;DHT22;1026;51.460;7.252;2023-04-24T09:48:47;12.10;91.40
2042;DHT22;1026;51.460;7.252;2023-04-24T09:51:13;12.00;91.50
2042;DHT22;1026;51.460;7.252;2023-04-24T09:53:47;12.00;91.50
2042;DHT22;1026;51.460;7.252;2023-04-24T09:56:12;12.00;91.50
2042;DHT22;1026;51.460;7.252;2023-04-24T09:58:38;12.00;91.60
2042;DHT22;1026;51.460;7.252;2023-04-24T10:01:04;12.00;91.60
2042;DHT22;1026;51.460;7.252;2023-04-24T10:03:31;11.90;91.60
2042;DHT22;1026;51.460;7.252;2023-04-24T10:06:13;11.90;91.70
2042;DHT22;1026;51.460;7.252;2023-04-24T10:08:38;11.90;91.80
2042;DHT22;1026;51.460;7.252;2023-04-24T10:11:04;11.90;91.80
2042;DHT22;1026;51.460;7.252;2023-04-24T10:13:30;11.90;91.80
2042;DHT22;1026;51.460;7.252;2023-04-24T10:15:56;11.90;91.80
2042;DHT22;1026;51.460;7.252;2023-04-24T10:18:24;11.90;91.80
2042;DHT22;1026;51.460;7.252;2023-04-24T10:20:50;11.80;91.80
2042;DHT22;1026;51.460;7.252;2023-04-24T10:23:16;11.80;91.80
2042;DHT22;1026;51.460;7.252;2023-04-24T10:25:44;11.90;91.80
2042;DHT22;1026;51.460;7.252;2023-04-24T10:28:10;11.80;91.80
2042;DHT22;1026;51.460;7.252;2023-04-24T10:30:37;11.80;91.70
2042;DHT22;1026;51.460;7.252;2023-04-24T10:33:06;11.80;91.70
2042;DHT22;1026;51.460;7.252;2023-04-24T10:35:34;11.90;91.70
2042;DHT22;1026;51.460;7.252;2023-04-24T10:38:12;11.90;91.70
2042;DHT22;1026;51.460;7.252;2023-04-24T10:40:38;11.90;91.60
2042;DHT22;1026;51.460;7.252;2023-04-24T10:43:06;11.90;91.70
2042;DHT22;1026;51.460;7.252;2023-04-24T10:45:34;11.90;91.70
2042;DHT22;1026;51.460;7.252;2023-04-24T10:48:01;11.90;91.70
2042;DHT22;1026;51.460;7.252;2023-04-24T10:50:28;11.80;91.70
2042;DHT22;1026;51.460;7.252;2023-04-24T10:53:06;11.80;91.70
2042;DHT22;1026;51.460;7.252;2023-04-24T10:55:42;11.80;91.70
2042;DHT22;1026;51.460;7.252;2023-04-24T10:58:09;11.80;91.80
2042;DHT22;1026;51.460;7.252;2023-04-24T11:00:38;11.80;91.70
2042;DHT22;1026;51.460;7.252;2023-04-24T11:03:06;11.80;91.80
2042;DHT22;1026;51.460;7.252;2023-04-24T11:05:52;11.80;91.70
2042;DHT22;1026;51.460;7.252;2023-04-24T11:08:28;11.70;91.70
2042;DHT22;1026;51.460;7.252;2023-04-24T11:10:57;11.80;91.80
2042;DHT22;1026;51.460;7.252;2023-04-24T11:13:25;11.80;91.80
2042;DHT22;1026;51.460;7.252;2023-04-24T11:18:52;11.90;91.70
2042;DHT22;1026;51.460;7.252;2023-04-24T11:21:25;11.90;91.70
2042;DHT22;1026;51.460;7.252;2023-04-24T11:23:51;11.80;92.00
2042;DHT22;1026;51.460;7.252;2023-04-24T11:26:21;11.90;91.70
2042;DHT22;1026;51.460;7.252;2023-04-24T11:28:48;11.80;91.70
2042;DHT22;1026;51.460;7.252;2023-04-24T11:31:38;11.80;91.80
2042;DHT22;1026;51.460;7.252;2023-04-24T11:34:17;11.80;91.70
2042;DHT22;1026;51.460;7.252;2023-04-24T11:36:44;11.80;91.70
2042;DHT22;1026;51.460;7.252;2023-04-24T11:39:11;11.80;91.70
2042;DHT22;1026;51.460;7.252;2023-04-24T11:41:37;11.80;91.70
2042;DHT22;1026;51.460;7.252;2023-04-24T11:44:05;11.80;91.70
2042;DHT22;1026;51.460;7.252;2023-04-24T11:46:31;11.80;91.80
2042;DHT22;1026;51.460;7.252;2023-04-24T11:48:58;11.80;91.80
2042;DHT22;1026;51.460;7.252;2023-04-24T11:51:25;11.80;91.80
2042;DHT22;1026;51.460;7.252;2023-04-24T11:53:52;11.80;91.80
2042;DHT22;1026;51.460;7.252;2023-04-24T11:56:19;11.80;91.80
2042;DHT22;1026;51.460;7.252;2023-04-24T11:58:47;11.80;91.80
2042;DHT22;1026;51.460;7.252;2023-04-24T12:01:13;11.90;91.80
2042;DHT22;1026;51.460;7.252;2023-04-24T12:03:48;11.90;91.80
2042;DHT22;1026;51.460;7.252;2023-04-24T12:06:14;11.80;91.80
2042;DHT22;1026;51.460;7.252;2023-04-24T12:08:40;11.80;91.80
2042;DHT22;1026;51.460;7.252;2023-04-24T12:11:06;11.80;91.80
2042;DHT22;1026;51.460;7.252;2023-04-24T12:13:33;11.80;91.80
2042;DHT22;1026;51.460;7.252;2023-04-24T12:16:01;11.80;91.80
2042;DHT22;1026;51.460;7.252;2023-04-24T12:18:30;11.80;91.70
2042;DHT22;1026;51.460;7.252;2023-04-24T12:21:16;11.80;91.70
2042;DHT22;1026;51.460;7.252;2023-04-24T12:23:44;11.80;91.70
2042;DHT22;1026;51.460;7.252;2023-04-24T12:26:11;11.80;91.70
2042;DHT22;1026;51.460;7.252;2023-04-24T12:28:40;11.80;91.70
2042;DHT22;1026;51.460;7.252;2023-04-24T12:31:06;11.80;91.70
2042;DHT22;1026;51.460;7.252;2023-04-24T12:33:34;11.90;91.70
2042;DHT22;1026;51.460;7.252;2023-04-24T12:36:00;11.90;91.70
2042;DHT22;1026;51.460;7.252;2023-04-24T12:38:28;11.80;91.80
2042;DHT22;1026;51.460;7.252;2023-04-24T12:41:04;11.80;91.80
2042;DHT22;1026;51.460;7.252;2023-04-24T12:43:30;11.80;91.80
2042;DHT22;1026;51.460;7.252;2023-04-24T12:45:56;11.80;91.80
2042;DHT22;1026;51.460;7.252;2023-04-24T12:48:22;11.80;91.80
2042;DHT22;1026;51.460;7.252;2023-04-24T12:50:48;11.80;91.70
2042;DHT22;1026;51.460;7.252;2023-04-24T12:53:14;11.80;91.80
2042;DHT22;1026;51.460;7.252;2023-04-24T12:55:41;11.80;91.70
2042;DHT22;1026;51.460;7.252;2023-04-24T12:58:07;11.90;91.70
2042;DHT22;1026;51.460;7.252;2023-04-24T13:00:33;11.90;91.70
2042;DHT22;1026;51.460;7.252;2023-04-24T13:02:58;11.80;91.60
2042;DHT22;1026;51.460;7.252;2023-04-24T13:05:24;11.90;91.70
2042;DHT22;1026;51.460;7.252;2023-04-24T13:07:50;11.90;91.60
2042;DHT22;1026;51.460;7.252;2023-04-24T13:10:16;11.80;91.40
2042;DHT22;1026;51.460;7.252;2023-04-24T13:12:41;11.80;91.50
2042;DHT22;1026;51.460;7.252;2023-04-24T13:15:10;11.90;91.40
2042;DHT22;1026;51.460;7.252;2023-04-24T13:17:36;11.90;91.50
2042;DHT22;1026;51.460;7.252;2023-04-24T13:20:02;11.90;91.40
2042;DHT22;1026;51.460;7.252;2023-04-24T13:22:28;11.80;91.40
2042;DHT22;1026;51.460;7.252;2023-04-24T13:24:53;11.90;91.40
2042;DHT22;1026;51.460;7.252;2023-04-24T13:27:20;11.90;91.30
2042;DHT22;1026;51.460;7.252;2023-04-24T13:29:45;11.90;91.40
2042;DHT22;1026;51.460;7.252;2023-04-24T13:32:11;11.80;91.40
2042;DHT22;1026;51.460;7.252;2023-04-24T13:34:37;11.90;91.40
2042;DHT22;1026;51.460;7.252;2023-04-24T13:37:04;11.90;91.40
2042;DHT22;1026;51.460;7.252;2023-04-24T13:39:30;11.90;91.40
2042;DHT22;1026;51.460;7.252;2023-04-24T13:41:56;11.90;91.40
2042;DHT22;1026;51.460;7.252;2023-04-24T13:44:22;11.90;91.30
2042;DHT22;1026;51.460;7.252;2023-04-24T13:46:51;11.90;91.40
2042;DHT22;1026;51.460;7.252;2023-04-24T13:49:20;11.90;91.30
2042;DHT22;1026;51.460;7.252;2023-04-24T13:51:46;11.90;91.30
2042;DHT22;1026;51.460;7.252;2023-04-24T13:54:11;11.90;91.30
2042;DHT22;1026;51.460;7.252;2023-04-24T13:56:38;11.90;91.30
2042;DHT22;1026;51.460;7.252;2023-04-24T13:59:04;11.90;91.30
2042;DHT22;1026;51.460;7.252;2023-04-24T14:01:30;11.90;91.20
2042;DHT22;1026;51.460;7.252;2023-04-24T14:03:56;11.90;91.30
2042;DHT22;1026;51.460;7.252;2023-04-24T14:06:22;11.90;91.20
2042;DHT22;1026;51.460;7.252;2023-04-24T14:08:49;11.90;91.20
2042;DHT22;1026;51.460;7.252;2023-04-24T14:11:16;12.00;91.20
2042;DHT22;1026;51.460;7.252;2023-04-24T14:13:42;12.00;91.20
2042;DHT22;1026;51.460;7.252;2023-04-24T14:16:09;11.90;91.10
2042;DHT22;1026;51.460;7.252;2023-04-24T14:18:35;12.00;91.20
2042;DHT22;1026;51.460;7.252;2023-04-24T14:21:02;11.90;89.70
2042;DHT22;1026;51.460;7.252;2023-04-24T14:23:27;11.80;88.40
2042;DHT22;1026;51.460;7.252;2023-04-24T14:25:53;11.80;88.60
2042;DHT22;1026;51.460;7.252;2023-04-24T14:28:19;11.90;88.50
2042;DHT22;1026;51.460;7.252;2023-04-24T14:30:45;11.90;89.40
2042;DHT22;1026;51.460;7.252;2023-04-24T14:33:12;11.90;89.50
2042;DHT22;1026;51.460;7.252;2023-04-24T14:35:38;11.90;88.50
2042;DHT22;1026;51.460;7.252;2023-04-24T14:38:05;11.80;88.30
2042;DHT22;1026;51.460;7.252;2023-04-24T14:40:31;11.90;89.00
2042;DHT22;1026;51.460;7.252;2023-04-24T14:42:58;12.00;89.40
2042;DHT22;1026;51.460;7.252;2023-04-24T14:45:24;12.00;89.40
2042;DHT22;1026;51.460;7.252;2023-04-24T14:47:50;12.00;89.60
2042;DHT22;1026;51.460;7.252;2023-04-24T14:50:15;12.00;89.70
2042;DHT22;1026;51.460;7.252;2023-04-24T14:52:41;12.00;89.80
2042;DHT22;1026;51.460;7.252;2023-04-24T14:55:07;12.00;89.40
2042;DHT22;1026;51.460;7.252;2023-04-24T14:57:33;12.00;89.90
2042;DHT22;1026;51.460;7.252;2023-04-24T14:59:59;12.00;90.00
2042;DHT22;1026;51.460;7.252;2023-04-24T15:02:25;12.00;89.70
2042;DHT22;1026;51.460;7.252;2023-04-24T15:04:51;12.00;90.00
2042;DHT22;1026;51.460;7.252;2023-04-24T15:07:16;12.00;90.10
2042;DHT22;1026;51.460;7.252;2023-04-24T15:09:42;12.00;90.00
2042;DHT22;1026;51.460;7.252;2023-04-24T15:12:08;12.00;90.00
2042;DHT22;1026;51.460;7.252;2023-04-24T15:14:40;12.00;90.10
2042;DHT22;1026;51.460;7.252;2023-04-24T15:17:06;12.10;90.10
2042;DHT22;1026;51.460;7.252;2023-04-24T15:19:32;12.00;90.10
2042;DHT22;1026;51.460;7.252;2023-04-24T15:21:57;12.00;90.20
2042;DHT22;1026;51.460;7.252;2023-04-24T15:24:23;12.00;90.20
2042;DHT22;1026;51.460;7.252;2023-04-24T15:26:49;12.00;90.30
2042;DHT22;1026;51.460;7.252;2023-04-24T15:29:22;12.00;90.30
2042;DHT22;1026;51.460;7.252;2023-04-24T15:31:48;12.00;90.30
2042;DHT22;1026;51.460;7.252;2023-04-24T15:34:14;12.00;90.30
2042;DHT22;1026;51.460;7.252;2023-04-24T15:36:39;12.00;90.30
2042;DHT22;1026;51.460;7.252;2023-04-24T15:39:05;12.00;90.30
2042;DHT22;1026;51.460;7.252;2023-04-24T15:41:34;12.00;90.30
2042;DHT22;1026;51.460;7.252;2023-04-24T15:43:59;12.00;90.30
2042;DHT22;1026;51.460;7.252;2023-04-24T15:46:25;12.10;90.40
2042;DHT22;1026;51.460;7.252;2023-04-24T15:48:51;12.00;90.40
2042;DHT22;1026;51.460;7.252;2023-04-24T15:51:16;12.10;90.40
2042;DHT22;1026;51.460;7.252;2023-04-24T15:53:42;12.10;90.40
2042;DHT22;1026;51.460;7.252;2023-04-24T15:56:09;12.10;90.40
2042;DHT22;1026;51.460;7.252;2023-04-24T15:58:34;12.10;90.40
2042;DHT22;1026;51.460;7.252;2023-04-24T16:01:00;12.10;90.40
2042;DHT22;1026;51.460;7.252;2023-04-24T16:03:26;12.00;90.30